Time;durP1;ratioP1;P1;durP2;ratioP2;P2;SDS_P1;SDS_P2;PMS_P1;PMS_P2;Temp;Humidity;BMP_temperature;BMP_pressure;BME280_temperature;BME280_humidity;BME280_pressure;Samples;Min_cycle;Max_cycle;Signal;HPM_P1;HPM_P2
2023/01/20 00:00:45;;;;;;;;;;;1.40;99.90;;;;;;5068677;28;19909;-62
2023/01/20 00:03:10;;;;;;;;;;;1.30;99.90;;;;;;5073957;28;19904;-61
2023/01/20 00:05:36;;;;;;;;;;;1.20;99.90;;;;;;5064090;28;20044;-60
2023/01/20 00:08:01;;;;;;;;;;;1.30;99.90;;;;;;5069846;28;19951;-61
2023/01/20 00:10:27;;;;;;;;;;;1.30;99.90;;;;;;5069589;28;19919;-62
2023/01/20 00:12:53;;;;;;;;;;;1.30;99.90;;;;;;5067271;28;19916;-61
2023/01/20 00:15:18;;;;;;;;;;;1.40;99.90;;;;;;5068150;28;19909;-62
2023/01/20 00:17:44;;;;;;;;;;;1.30;99.90;;;;;;5068950;28;20350;-62
2023/01/20 00:20:15;;;;;;;;;;;1.40;99.90;;;;;;5071270;28;20392;-62
2023/01/20 00:22:41;;;;;;;;;;;1.20;99.90;;;;;;5067413;28;19912;-62
2023/01/20 00:25:08;;;;;;;;;;;1.10;99.90;;;;;;5069224;28;19919;-62
2023/01/20 00:27:33;;;;;;;;;;;0.90;99.90;;;;;;5068494;28;19908;-62
2023/01/20 00:29:59;;;;;;;;;;;0.90;99.90;;;;;;5069078;28;20271;-62
2023/01/20 00:32:24;;;;;;;;;;;0.70;99.90;;;;;;5068618;28;19931;-61
2023/01/20 00:34:49;;;;;;;;;;;0.70;99.90;;;;;;5064778;28;19931;-62
2023/01/20 00:37:15;;;;;;;;;;;0.70;99.90;;;;;;5069996;28;19939;-62
2023/01/20 00:39:40;;;;;;;;;;;0.70;99.90;;;;;;5068478;28;19916;-62
2023/01/20 00:42:06;;;;;;;;;;;0.80;99.90;;;;;;5068831;28;19908;-62
2023/01/20 00:44:31;;;;;;;;;;;0.90;99.90;;;;;;5068045;28;20011;-61
2023/01/20 00:46:57;;;;;;;;;;;1.00;99.90;;;;;;5067732;28;20409;-62
2023/01/20 00:49:22;;;;;;;;;;;1.00;99.90;;;;;;5066537;28;20382;-62
2023/01/20 00:51:47;;;;;;;;;;;1.10;99.90;;;;;;5069649;28;20325;-62
2023/01/20 00:54:13;;;;;;;;;;;1.10;99.90;;;;;;5070008;28;19913;-62
2023/01/20 00:56:38;;;;;;;;;;;1.20;99.90;;;;;;5067685;28;19915;-62
2023/01/20 00:59:04;;;;;;;;;;;1.20;99.90;;;;;;5063172;28;19908;-62
2023/01/20 01:01:29;;;;;;;;;;;1.10;99.90;;;;;;5066012;28;20439;-62
2023/01/20 01:03:55;;;;;;;;;;;1.20;99.90;;;;;;5066240;28;19908;-62
2023/01/20 01:06:22;;;;;;;;;;;1.00;99.90;;;;;;5070142;28;19966;-62
2023/01/20 01:08:47;;;;;;;;;;;1.00;99.90;;;;;;5062152;28;20073;-62
2023/01/20 01:11:13;;;;;;;;;;;1.00;99.90;;;;;;5070859;28;20387;-62
2023/01/20 01:13:39;;;;;;;;;;;0.90;99.90;;;;;;5067746;28;19915;-62
2023/01/20 01:16:08;;;;;;;;;;;1.00;99.90;;;;;;5067348;28;19905;-62
2023/01/20 01:18:34;;;;;;;;;;;0.90;99.90;;;;;;5067462;28;19909;-61
2023/01/20 01:21:04;;;;;;;;;;;1.00;99.90;;;;;;5067108;28;19908;-62
2023/01/20 01:23:30;;;;;;;;;;;1.00;99.90;;;;;;5069673;28;19944;-61
2023/01/20 01:25:55;;;;;;;;;;;0.90;99.90;;;;;;5068696;28;20924;-61
2023/01/20 01:28:20;;;;;;;;;;;1.00;99.90;;;;;;5073457;28;19917;-61
2023/01/20 01:30:46;;;;;;;;;;;1.20;99.90;;;;;;5071729;28;19909;-62
2023/01/20 01:33:11;;;;;;;;;;;1.20;99.90;;;;;;5071165;28;19998;-62
2023/01/20 01:35:37;;;;;;;;;;;1.30;99.90;;;;;;5071579;28;19954;-61
2023/01/20 01:38:02;;;;;;;;;;;1.30;99.90;;;;;;5072836;28;19962;-62
2023/01/20 01:40:28;;;;;;;;;;;1.30;99.90;;;;;;5067586;28;19913;-62
2023/01/20 01:42:53;;;;;;;;;;;1.20;99.90;;;;;;5071509;28;19904;-62
2023/01/20 01:45:19;;;;;;;;;;;1.10;99.90;;;;;;5075046;28;19972;-62
2023/01/20 01:48:05;;;;;;;;;;;1.00;99.90;;;;;;5071838;28;19915;-62
2023/01/20 01:50:44;;;;;;;;;;;0.90;99.90;;;;;;5069802;28;19955;-62
2023/01/20 01:53:10;;;;;;;;;;;0.90;99.90;;;;;;5072491;28;20007;-61
2023/01/20 01:55:38;;;;;;;;;;;0.80;99.90;;;;;;5071259;28;19920;-60
2023/01/20 01:58:05;;;;;;;;;;;0.70;99.90;;;;;;5071606;28;20362;-62
2023/01/20 02:00:30;;;;;;;;;;;0.60;99.90;;;;;;5071747;28;20441;-62
2023/01/20 02:02:56;;;;;;;;;;;0.60;99.90;;;;;;5073339;28;19935;-62
2023/01/20 02:05:23;;;;;;;;;;;0.60;99.90;;;;;;5065364;28;19916;-62
2023/01/20 02:07:49;;;;;;;;;;;0.60;99.90;;;;;;5073146;28;19908;-62
2023/01/20 02:10:15;;;;;;;;;;;0.60;99.90;;;;;;5069397;28;20285;-61
2023/01/20 02:12:43;;;;;;;;;;;0.60;99.90;;;;;;5070356;28;19912;-61
2023/01/20 02:15:08;;;;;;;;;;;0.60;99.90;;;;;;5069627;28;19915;-62
2023/01/20 02:17:37;;;;;;;;;;;0.60;99.90;;;;;;5071903;28;19908;-62
2023/01/20 02:20:08;;;;;;;;;;;0.50;99.90;;;;;;5071419;28;19921;-62
2023/01/20 02:22:46;;;;;;;;;;;0.40;99.90;;;;;;5070947;28;19920;-62
2023/01/20 02:25:11;;;;;;;;;;;0.30;99.90;;;;;;5068949;28;19943;-62
2023/01/20 02:28:01;;;;;;;;;;;0.20;99.90;;;;;;5064611;28;19975;-62
2023/01/20 02:30:27;;;;;;;;;;;0.30;99.90;;;;;;5068890;28;19947;-62
2023/01/20 02:32:59;;;;;;;;;;;0.30;99.90;;;;;;5072307;28;19947;-61
2023/01/20 02:35:40;;;;;;;;;;;0.20;99.90;;;;;;5069670;28;19908;-62
2023/01/20 02:38:12;;;;;;;;;;;0.10;99.90;;;;;;5067095;28;19908;-62
2023/01/20 02:40:42;;;;;;;;;;;0.10;99.90;;;;;;5070375;28;19972;-62
2023/01/20 02:43:08;;;;;;;;;;;0.00;99.90;;;;;;5069997;28;19919;-61
2023/01/20 02:45:36;;;;;;;;;;;0.00;99.90;;;;;;5065593;28;19913;-60
2023/01/20 02:48:07;;;;;;;;;;;0.00;99.90;;;;;;5071398;28;19920;-62
2023/01/20 02:50:33;;;;;;;;;;;0.00;99.90;;;;;;5070523;28;19908;-62
2023/01/20 02:53:00;;;;;;;;;;;-0.10;99.90;;;;;;5069054;28;20277;-61
2023/01/20 02:55:33;;;;;;;;;;;-0.10;99.90;;;;;;5069556;28;19967;-62
2023/01/20 02:58:05;;;;;;;;;;;-0.20;99.90;;;;;;5070603;28;19994;-61
2023/01/20 03:00:35;;;;;;;;;;;-0.20;99.90;;;;;;5070055;28;19917;-61
2023/01/20 03:03:05;;;;;;;;;;;-0.20;99.90;;;;;;5070442;28;19916;-61
2023/01/20 03:05:32;;;;;;;;;;;-0.20;99.90;;;;;;5071311;28;19920;-62
2023/01/20 03:07:59;;;;;;;;;;;-0.20;99.90;;;;;;5067808;28;20415;-62
2023/01/20 03:10:26;;;;;;;;;;;-0.20;99.90;;;;;;5075220;28;19915;-62
2023/01/20 03:12:59;;;;;;;;;;;-0.20;99.90;;;;;;5071825;28;20389;-61
2023/01/20 03:15:32;;;;;;;;;;;-0.20;99.90;;;;;;5069497;28;20017;-62
2023/01/20 03:17:57;;;;;;;;;;;-0.20;99.90;;;;;;5069136;28;19912;-60
2023/01/20 03:20:23;;;;;;;;;;;-0.20;99.90;;;;;;5070299;28;19909;-62
2023/01/20 03:22:48;;;;;;;;;;;-0.30;99.90;;;;;;5069755;28;20003;-64
2023/01/20 03:25:15;;;;;;;;;;;-0.30;99.90;;;;;;5069844;28;20002;-61
2023/01/20 03:27:41;;;;;;;;;;;-0.30;99.90;;;;;;5068511;28;19915;-62
2023/01/20 03:30:13;;;;;;;;;;;-0.30;99.90;;;;;;5069514;28;19908;-61
2023/01/20 03:32:40;;;;;;;;;;;-0.40;99.90;;;;;;5071625;28;19908;-61
2023/01/20 03:35:06;;;;;;;;;;;-0.40;99.90;;;;;;5069009;28;19916;-62
2023/01/20 03:37:31;;;;;;;;;;;-0.30;99.90;;;;;;5067559;28;20384;-62
2023/01/20 03:39:57;;;;;;;;;;;-0.30;99.90;;;;;;5071376;28;19948;-61
2023/01/20 03:42:42;;;;;;;;;;;-0.20;99.90;;;;;;5067534;28;19950;-61
2023/01/20 03:45:10;;;;;;;;;;;-0.30;99.90;;;;;;5066152;28;20362;-61
2023/01/20 03:47:36;;;;;;;;;;;-0.40;99.90;;;;;;5070770;28;19920;-62
2023/01/20 03:50:24;;;;;;;;;;;-0.40;99.90;;;;;;5068064;28;20435;-62
2023/01/20 03:52:56;;;;;;;;;;;-0.40;99.90;;;;;;5072214;28;20289;-61
2023/01/20 03:55:30;;;;;;;;;;;-0.40;99.90;;;;;;5068977;28;19909;-62
2023/01/20 03:58:04;;;;;;;;;;;-0.50;99.90;;;;;;5069327;28;19912;-62
2023/01/20 04:00:31;;;;;;;;;;;-0.60;99.90;;;;;;5067802;28;19928;-61
2023/01/20 04:02:58;;;;;;;;;;;-0.60;99.90;;;;;;5070039;28;19908;-62
2023/01/20 04:05:24;;;;;;;;;;;-0.50;99.90;;;;;;5068381;28;20365;-62
2023/01/20 04:07:50;;;;;;;;;;;-0.30;99.90;;;;;;5067571;28;19912;-61
2023/01/20 04:10:16;;;;;;;;;;;-0.20;99.90;;;;;;5068043;28;19908;-61
2023/01/20 04:12:41;;;;;;;;;;;-0.20;99.90;;;;;;5065972;28;22813;-63
2023/01/20 04:15:08;;;;;;;;;;;-0.10;99.90;;;;;;5070410;28;19932;-61
2023/01/20 04:17:34;;;;;;;;;;;-0.20;99.90;;;;;;5070473;28;19951;-62
2023/01/20 04:20:03;;;;;;;;;;;-0.30;99.90;;;;;;5070178;28;20382;-61
2023/01/20 04:22:29;;;;;;;;;;;-0.30;99.90;;;;;;5069245;28;19909;-62
2023/01/20 04:25:02;;;;;;;;;;;-0.20;99.90;;;;;;5068139;28;19915;-62
2023/01/20 04:27:28;;;;;;;;;;;-0.10;99.90;;;;;;5066627;28;20368;-60
2023/01/20 04:29:53;;;;;;;;;;;0.00;99.90;;;;;;5068759;28;19920;-63
2023/01/20 04:32:19;;;;;;;;;;;0.00;99.90;;;;;;5068122;28;19912;-63
2023/01/20 04:34:44;;;;;;;;;;;0.10;99.90;;;;;;5071302;28;20160;-61
2023/01/20 04:37:09;;;;;;;;;;;0.20;99.90;;;;;;5069018;28;19913;-61
2023/01/20 04:39:35;;;;;;;;;;;0.20;99.90;;;;;;5069211;28;20292;-61
2023/01/20 04:42:00;;;;;;;;;;;0.10;99.90;;;;;;5066857;28;19904;-59
2023/01/20 04:44:26;;;;;;;;;;;0.10;99.90;;;;;;5065861;28;19913;-62
2023/01/20 04:46:55;;;;;;;;;;;0.20;99.90;;;;;;5067464;28;20002;-62
2023/01/20 04:49:21;;;;;;;;;;;0.20;99.90;;;;;;5069931;28;19951;-63
2023/01/20 04:51:46;;;;;;;;;;;0.20;99.90;;;;;;5066570;28;19944;-62
2023/01/20 04:54:12;;;;;;;;;;;0.20;99.90;;;;;;5066203;28;19917;-62
2023/01/20 04:56:37;;;;;;;;;;;0.30;99.90;;;;;;5066167;28;20340;-63
2023/01/20 04:59:02;;;;;;;;;;;0.30;99.90;;;;;;5065673;28;20390;-63
2023/01/20 05:01:28;;;;;;;;;;;0.20;99.90;;;;;;5065567;28;20301;-62
2023/01/20 05:03:53;;;;;;;;;;;0.20;99.90;;;;;;5067211;28;19913;-63
2023/01/20 05:06:19;;;;;;;;;;;0.20;99.90;;;;;;5065327;28;20062;-63
2023/01/20 05:08:44;;;;;;;;;;;0.20;99.90;;;;;;5064226;28;19913;-63
2023/01/20 05:11:10;;;;;;;;;;;0.30;99.90;;;;;;5068522;28;19952;-63
2023/01/20 05:13:38;;;;;;;;;;;0.30;99.90;;;;;;5069117;28;19916;-61
2023/01/20 05:16:06;;;;;;;;;;;0.30;99.90;;;;;;5068862;28;20038;-61
2023/01/20 05:18:32;;;;;;;;;;;0.40;99.90;;;;;;5069844;28;19920;-61
2023/01/20 05:20:58;;;;;;;;;;;0.50;99.90;;;;;;5068616;28;19912;-62
2023/01/20 05:23:24;;;;;;;;;;;0.50;99.90;;;;;;5064364;28;19909;-61
2023/01/20 05:25:50;;;;;;;;;;;0.50;99.90;;;;;;5069260;28;19917;-63
2023/01/20 05:28:15;;;;;;;;;;;0.50;99.90;;;;;;5067926;28;19924;-62
2023/01/20 05:30:41;;;;;;;;;;;0.50;99.90;;;;;;5066932;28;19935;-62
2023/01/20 05:33:06;;;;;;;;;;;0.50;99.90;;;;;;5066798;28;20282;-62
2023/01/20 05:35:31;;;;;;;;;;;0.50;99.90;;;;;;5065181;28;20306;-62
2023/01/20 05:37:57;;;;;;;;;;;0.60;99.90;;;;;;5065755;28;20918;-62
2023/01/20 05:40:22;;;;;;;;;;;0.60;99.90;;;;;;5069381;28;20003;-60
2023/01/20 05:42:48;;;;;;;;;;;0.60;99.90;;;;;;5071333;28;19916;-62
2023/01/20 05:45:13;;;;;;;;;;;0.80;99.90;;;;;;5063307;28;20007;-62
2023/01/20 05:47:39;;;;;;;;;;;0.80;99.90;;;;;;5068193;28;20435;-62
2023/01/20 05:50:04;;;;;;;;;;;0.90;99.90;;;;;;5069570;28;19920;-62
2023/01/20 05:52:30;;;;;;;;;;;0.90;99.90;;;;;;5065292;28;19917;-62
2023/01/20 05:54:55;;;;;;;;;;;1.00;99.90;;;;;;5067505;28;19944;-62
2023/01/20 05:57:24;;;;;;;;;;;1.10;99.90;;;;;;5066759;28;19908;-62
2023/01/20 05:59:50;;;;;;;;;;;1.10;99.90;;;;;;5059272;28;19913;-63
2023/01/20 06:02:18;;;;;;;;;;;1.10;99.90;;;;;;5060786;28;19909;-61
2023/01/20 06:04:46;;;;;;;;;;;1.10;99.90;;;;;;5063427;28;20340;-62
2023/01/20 06:07:12;;;;;;;;;;;1.00;99.90;;;;;;5064484;28;19917;-61
2023/01/20 06:09:37;;;;;;;;;;;1.10;99.90;;;;;;5066164;28;19912;-61
2023/01/20 06:12:03;;;;;;;;;;;1.10;99.90;;;;;;5065481;28;20007;-61
2023/01/20 06:14:28;;;;;;;;;;;1.10;99.90;;;;;;5064996;28;20011;-62
2023/01/20 06:16:54;;;;;;;;;;;1.10;99.90;;;;;;5069557;28;19958;-62
2023/01/20 06:19:19;;;;;;;;;;;1.10;99.90;;;;;;5069318;28;19967;-61
2023/01/20 06:21:46;;;;;;;;;;;1.10;99.90;;;;;;5069325;28;19917;-62
2023/01/20 06:24:11;;;;;;;;;;;1.00;99.90;;;;;;5065788;28;20434;-61
2023/01/20 06:26:36;;;;;;;;;;;1.00;99.90;;;;;;5069860;28;20309;-62
2023/01/20 06:29:02;;;;;;;;;;;1.10;99.90;;;;;;5068794;28;20340;-62
2023/01/20 06:31:27;;;;;;;;;;;1.00;99.90;;;;;;5069112;28;20286;-62
2023/01/20 06:33:55;;;;;;;;;;;1.10;99.90;;;;;;5067581;28;19912;-59
2023/01/20 06:36:20;;;;;;;;;;;1.10;99.90;;;;;;5073623;28;19913;-61
2023/01/20 06:38:49;;;;;;;;;;;1.10;99.90;;;;;;5072716;28;19919;-63
2023/01/20 06:41:15;;;;;;;;;;;1.00;99.90;;;;;;5072709;28;19999;-61
2023/01/20 06:43:40;;;;;;;;;;;1.00;99.90;;;;;;5072326;28;19951;-62
2023/01/20 06:46:09;;;;;;;;;;;0.90;99.90;;;;;;5069364;28;20370;-62
2023/01/20 06:48:35;;;;;;;;;;;0.90;99.90;;;;;;5073423;28;20577;-61
2023/01/20 06:51:04;;;;;;;;;;;0.90;99.90;;;;;;5067234;28;19917;-62
2023/01/20 06:53:30;;;;;;;;;;;0.90;99.90;;;;;;5071509;28;19952;-62
2023/01/20 06:55:56;;;;;;;;;;;0.90;99.90;;;;;;5073067;28;19959;-61
2023/01/20 06:58:22;;;;;;;;;;;0.90;99.90;;;;;;5070293;28;20110;-63
2023/01/20 07:00:48;;;;;;;;;;;0.80;99.90;;;;;;5073541;28;19912;-62
2023/01/20 07:03:13;;;;;;;;;;;0.80;99.90;;;;;;5069104;28;20360;-63
2023/01/20 07:05:39;;;;;;;;;;;0.70;99.90;;;;;;5066798;28;19921;-62
2023/01/20 07:08:05;;;;;;;;;;;0.70;99.90;;;;;;5069318;28;19913;-59
2023/01/20 07:10:30;;;;;;;;;;;0.80;99.90;;;;;;5073453;28;19912;-62
2023/01/20 07:12:55;;;;;;;;;;;0.80;99.90;;;;;;5069693;28;19913;-62
2023/01/20 07:15:21;;;;;;;;;;;0.80;99.90;;;;;;5069580;28;19952;-61
2023/01/20 07:17:46;;;;;;;;;;;0.80;99.90;;;;;;5070702;28;19912;-62
2023/01/20 07:20:12;;;;;;;;;;;0.90;99.90;;;;;;5059565;28;19917;-62
2023/01/20 07:22:37;;;;;;;;;;;0.80;99.90;;;;;;5070330;28;20302;-61
2023/01/20 07:25:03;;;;;;;;;;;0.70;99.90;;;;;;5072333;28;19912;-62
2023/01/20 07:27:28;;;;;;;;;;;0.60;99.90;;;;;;5068456;28;19932;-62
2023/01/20 07:29:54;;;;;;;;;;;0.60;99.90;;;;;;5069051;28;20390;-61
2023/01/20 07:32:19;;;;;;;;;;;0.60;99.90;;;;;;5069024;28;20313;-62
2023/01/20 07:34:44;;;;;;;;;;;0.70;99.90;;;;;;5067286;28;19912;-62
2023/01/20 07:37:10;;;;;;;;;;;0.60;99.90;;;;;;5070483;28;19919;-62
2023/01/20 07:39:35;;;;;;;;;;;0.70;99.90;;;;;;5066956;28;20011;-60
2023/01/20 07:42:01;;;;;;;;;;;0.70;99.90;;;;;;5071789;28;20362;-62
2023/01/20 07:44:26;;;;;;;;;;;0.70;99.90;;;;;;5068084;28;20370;-61
2023/01/20 07:46:52;;;;;;;;;;;0.70;99.90;;;;;;5072790;28;20316;-62
2023/01/20 07:49:17;;;;;;;;;;;0.70;99.90;;;;;;5071030;28;20007;-60
2023/01/20 07:51:43;;;;;;;;;;;0.70;99.90;;;;;;5070762;28;19974;-62
2023/01/20 07:54:09;;;;;;;;;;;0.80;99.90;;;;;;5070625;28;19916;-61
2023/01/20 07:56:35;;;;;;;;;;;0.80;99.90;;;;;;5072749;28;19909;-61
2023/01/20 07:59:00;;;;;;;;;;;0.80;99.90;;;;;;5070409;28;19935;-61
2023/01/20 08:01:27;;;;;;;;;;;0.80;99.90;;;;;;5068347;28;19974;-61
2023/01/20 08:03:52;;;;;;;;;;;0.90;99.90;;;;;;5066685;28;19919;-62
2023/01/20 08:06:19;;;;;;;;;;;0.90;99.90;;;;;;5069994;28;19916;-61
2023/01/20 08:08:45;;;;;;;;;;;1.00;99.90;;;;;;5068931;28;19920;-61
2023/01/20 08:11:12;;;;;;;;;;;1.00;99.90;;;;;;5069519;28;19921;-61
2023/01/20 08:13:38;;;;;;;;;;;1.00;99.90;;;;;;5059974;28;19917;-61
2023/01/20 08:16:04;;;;;;;;;;;0.90;99.90;;;;;;5066193;28;19962;-63
2023/01/20 08:18:31;;;;;;;;;;;0.90;99.90;;;;;;5071367;28;19913;-62
2023/01/20 08:20:57;;;;;;;;;;;1.00;99.90;;;;;;5065828;28;20006;-64
2023/01/20 08:23:22;;;;;;;;;;;1.10;99.90;;;;;;5067818;28;20351;-63
2023/01/20 08:25:48;;;;;;;;;;;1.10;99.90;;;;;;5058588;28;19969;-64
2023/01/20 08:28:13;;;;;;;;;;;1.20;99.90;;;;;;5070882;28;19912;-64
2023/01/20 08:30:39;;;;;;;;;;;1.20;99.90;;;;;;5068352;28;19963;-64
2023/01/20 08:33:04;;;;;;;;;;;1.20;99.90;;;;;;5060909;28;20015;-64
2023/01/20 08:35:30;;;;;;;;;;;1.30;99.90;;;;;;5066817;28;19919;-64
2023/01/20 08:37:55;;;;;;;;;;;1.20;99.90;;;;;;5067818;28;19919;-63
2023/01/20 08:40:20;;;;;;;;;;;1.20;99.90;;;;;;5065627;28;20370;-64
2023/01/20 08:42:46;;;;;;;;;;;1.20;99.90;;;;;;5068219;28;20556;-64
2023/01/20 08:45:11;;;;;;;;;;;1.20;99.90;;;;;;5064829;28;19916;-64
2023/01/20 08:47:38;;;;;;;;;;;1.20;99.90;;;;;;5066074;28;19916;-63
2023/01/20 08:50:05;;;;;;;;;;;1.30;99.90;;;;;;5060683;28;19912;-64
2023/01/20 08:52:31;;;;;;;;;;;1.40;99.90;;;;;;5070307;28;19912;-63
2023/01/20 08:54:57;;;;;;;;;;;1.50;99.90;;;;;;5066805;28;20290;-63
2023/01/20 08:57:25;;;;;;;;;;;1.50;99.90;;;;;;5063489;28;20026;-63
2023/01/20 08:59:51;;;;;;;;;;;1.70;99.90;;;;;;5067689;28;19954;-63
2023/01/20 09:02:17;;;;;;;;;;;1.70;99.90;;;;;;5069084;28;19939;-63
2023/01/20 09:04:42;;;;;;;;;;;1.70;99.90;;;;;;5064701;28;19958;-63
2023/01/20 09:07:09;;;;;;;;;;;1.80;99.90;;;;;;5066841;28;19917;-63
2023/01/20 09:09:35;;;;;;;;;;;1.90;99.90;;;;;;5065703;28;19916;-63
2023/01/20 09:12:03;;;;;;;;;;;2.00;99.90;;;;;;5066259;28;19913;-63
2023/01/20 09:14:28;;;;;;;;;;;2.00;99.90;;;;;;5063390;28;19919;-62
2023/01/20 09:16:54;;;;;;;;;;;2.10;99.90;;;;;;5057330;28;20430;-63
2023/01/20 09:19:19;;;;;;;;;;;2.10;99.90;;;;;;5065646;28;19975;-64
2023/01/20 09:21:45;;;;;;;;;;;2.20;99.90;;;;;;5067851;28;20064;-64
2023/01/20 09:24:10;;;;;;;;;;;2.30;99.90;;;;;;5059994;28;20438;-63
2023/01/20 09:26:39;;;;;;;;;;;2.20;99.90;;;;;;5066552;28;19916;-63
2023/01/20 09:29:08;;;;;;;;;;;2.20;99.90;;;;;;5066590;28;19958;-64
2023/01/20 09:31:34;;;;;;;;;;;2.20;99.90;;;;;;5064708;28;19912;-63
2023/01/20 09:34:00;;;;;;;;;;;2.30;99.90;;;;;;5062412;28;19978;-64
2023/01/20 09:36:28;;;;;;;;;;;2.30;99.90;;;;;;5068257;28;20366;-63
2023/01/20 09:44:41;;;;;;;;;;;2.40;99.90;;;;;;5066494;28;19919;-61
2023/01/20 09:47:18;;;;;;;;;;;2.40;99.90;;;;;;5066769;28;19962;-64
2023/01/20 09:55:40;;;;;;;;;;;2.60;99.90;;;;;;5069438;28;20038;-62
2023/01/20 09:58:10;;;;;;;;;;;2.70;99.90;;;;;;5068466;28;19912;-63
2023/01/20 10:00:36;;;;;;;;;;;2.80;99.90;;;;;;5071632;28;19996;-64
2023/01/20 10:03:06;;;;;;;;;;;2.90;99.90;;;;;;5072464;28;19951;-63
2023/01/20 10:05:35;;;;;;;;;;;2.80;99.90;;;;;;5062051;28;19979;-63
2023/01/20 10:08:03;;;;;;;;;;;2.80;99.90;;;;;;5069774;28;19956;-64
2023/01/20 10:10:29;;;;;;;;;;;2.80;99.90;;;;;;5067512;28;20440;-63
2023/01/20 10:13:03;;;;;;;;;;;2.80;99.90;;;;;;5072866;28;19913;-63
2023/01/20 10:15:29;;;;;;;;;;;2.90;99.90;;;;;;5071879;28;19912;-63
2023/01/20 10:17:55;;;;;;;;;;;2.90;99.90;;;;;;5072520;28;19912;-63
2023/01/20 10:20:25;;;;;;;;;;;2.90;99.90;;;;;;5065745;28;20333;-63
2023/01/20 10:22:52;;;;;;;;;;;3.00;99.90;;;;;;5072057;28;19916;-62
2023/01/20 10:25:22;;;;;;;;;;;3.10;99.90;;;;;;5066926;28;21177;-63
2023/01/20 10:27:50;;;;;;;;;;;3.20;99.90;;;;;;5068150;28;19958;-63
2023/01/20 10:30:16;;;;;;;;;;;3.20;99.90;;;;;;5065978;28;19938;-62
2023/01/20 10:32:49;;;;;;;;;;;3.30;99.90;;;;;;5071937;28;20011;-63
2023/01/20 10:35:19;;;;;;;;;;;3.40;99.90;;;;;;5067089;28;19944;-63
2023/01/20 10:37:45;;;;;;;;;;;3.40;99.90;;;;;;5070713;28;19966;-63
2023/01/20 10:40:16;;;;;;;;;;;3.50;99.90;;;;;;5070924;28;19912;-64
2023/01/20 10:42:46;;;;;;;;;;;3.40;99.90;;;;;;5067580;28;20000;-64
2023/01/20 10:45:17;;;;;;;;;;;3.40;99.90;;;;;;5065848;28;19913;-64
2023/01/20 10:48:11;;;;;;;;;;;3.40;99.90;;;;;;5061536;28;21557;-64
2023/01/20 10:51:02;;;;;;;;;;;3.40;99.90;;;;;;5064788;28;19927;-64
2023/01/20 10:53:30;;;;;;;;;;;3.40;99.90;;;;;;5062397;28;19920;-63
2023/01/20 10:55:55;;;;;;;;;;;3.40;99.90;;;;;;5061684;28;20330;-64
2023/01/20 10:58:21;;;;;;;;;;;3.40;99.90;;;;;;5065569;28;19917;-65
2023/01/20 11:00:48;;;;;;;;;;;3.40;99.90;;;;;;5066999;28;19916;-69
2023/01/20 11:03:16;;;;;;;;;;;3.30;99.90;;;;;;5066571;28;19986;-65
2023/01/20 11:05:42;;;;;;;;;;;3.30;99.90;;;;;;5062553;28;20363;-65
2023/01/20 11:08:10;;;;;;;;;;;3.30;99.90;;;;;;5062422;28;19912;-65
2023/01/20 11:10:36;;;;;;;;;;;3.20;99.90;;;;;;5064013;28;19920;-64
2023/01/20 11:13:01;;;;;;;;;;;3.20;99.90;;;;;;5066997;28;19970;-64
2023/01/20 11:15:27;;;;;;;;;;;3.20;99.90;;;;;;5064735;28;20629;-64
2023/01/20 11:18:11;;;;;;;;;;;3.20;99.90;;;;;;5058765;28;20006;-64
2023/01/20 11:20:37;;;;;;;;;;;3.30;99.90;;;;;;5068504;28;19970;-63
2023/01/20 11:23:02;;;;;;;;;;;3.30;99.90;;;;;;5067414;28;19920;-62
2023/01/20 11:25:27;;;;;;;;;;;3.30;99.90;;;;;;5064989;28;19912;-64
2023/01/20 11:27:53;;;;;;;;;;;3.40;99.90;;;;;;5063504;28;19935;-62
2023/01/20 11:30:24;;;;;;;;;;;3.40;99.90;;;;;;5063051;28;19919;-63
2023/01/20 11:33:06;;;;;;;;;;;3.40;99.90;;;;;;5065868;28;20011;-64
2023/01/20 11:35:32;;;;;;;;;;;3.50;99.90;;;;;;5067979;28;19950;-62
2023/01/20 11:37:59;;;;;;;;;;;3.60;99.90;;;;;;5067116;28;20313;-63
2023/01/20 11:40:26;;;;;;;;;;;3.70;99.90;;;;;;5068596;28;19912;-64
2023/01/20 11:42:52;;;;;;;;;;;3.70;99.90;;;;;;5062018;28;19952;-62
2023/01/20 11:45:22;;;;;;;;;;;3.70;99.90;;;;;;5067757;28;20006;-62
2023/01/20 11:48:06;;;;;;;;;;;3.70;99.90;;;;;;5062268;28;19916;-64
2023/01/20 11:50:32;;;;;;;;;;;3.80;99.90;;;;;;5063611;28;20467;-62
2023/01/20 11:53:10;;;;;;;;;;;3.80;99.90;;;;;;5063887;28;19920;-63
2023/01/20 11:55:43;;;;;;;;;;;3.80;99.90;;;;;;5067616;28;19970;-64
2023/01/20 11:58:14;;;;;;;;;;;3.70;99.90;;;;;;5067243;28;20003;-64
2023/01/20 12:00:41;;;;;;;;;;;3.70;99.90;;;;;;5064693;28;20286;-64
2023/01/20 12:03:22;;;;;;;;;;;3.60;99.90;;;;;;5065522;28;19924;-64
2023/01/20 12:05:47;;;;;;;;;;;3.70;99.90;;;;;;5064478;28;19924;-63
2023/01/20 12:08:33;;;;;;;;;;;3.60;99.90;;;;;;5065557;28;19912;-63
2023/01/20 12:11:00;;;;;;;;;;;3.60;99.90;;;;;;5064609;28;19912;-64
2023/01/20 12:14:18;;;;;;;;;;;3.50;99.90;;;;;;5067961;28;19913;-64
2023/01/20 12:16:17;;;;;;;;;;;3.50;99.90;;;;;;5067933;28;19912;-63
2023/01/20 12:18:51;;;;;;;;;;;3.50;99.90;;;;;;5070843;28;19916;-64
2023/01/20 12:21:17;;;;;;;;;;;3.50;99.90;;;;;;5070369;28;20353;-64
2023/01/20 12:23:44;;;;;;;;;;;3.40;99.90;;;;;;5069008;28;19960;-62
2023/01/20 12:26:12;;;;;;;;;;;3.30;99.90;;;;;;5066832;28;19969;-62
2023/01/20 12:28:37;;;;;;;;;;;3.20;99.90;;;;;;5067274;28;19912;-64
2023/01/20 12:31:04;;;;;;;;;;;3.20;99.90;;;;;;5069184;28;19978;-62
2023/01/20 12:33:31;;;;;;;;;;;3.10;99.90;;;;;;5068260;28;19962;-64
2023/01/20 12:36:15;;;;;;;;;;;3.10;99.90;;;;;;5066288;28;19920;-63
2023/01/20 12:39:01;;;;;;;;;;;3.00;99.90;;;;;;5066594;28;19926;-63
2023/01/20 12:41:33;;;;;;;;;;;2.90;99.90;;;;;;5066210;28;19913;-64
2023/01/20 12:44:07;;;;;;;;;;;2.80;99.90;;;;;;5067807;28;19916;-63
2023/01/20 12:46:35;;;;;;;;;;;2.70;99.90;;;;;;5066973;28;19966;-63
2023/01/20 12:49:00;;;;;;;;;;;2.70;99.90;;;;;;5068226;28;19913;-66
2023/01/20 12:51:44;;;;;;;;;;;2.60;99.90;;;;;;5070335;28;20004;-65
2023/01/20 12:54:13;;;;;;;;;;;2.60;99.90;;;;;;5067480;28;19913;-64
2023/01/20 12:56:57;;;;;;;;;;;2.50;99.90;;;;;;5067913;28;20015;-63
2023/01/20 12:59:22;;;;;;;;;;;2.40;99.90;;;;;;5066205;28;19969;-64
2023/01/20 13:02:05;;;;;;;;;;;2.30;99.90;;;;;;5066173;28;19953;-62
2023/01/20 13:04:31;;;;;;;;;;;2.40;99.90;;;;;;5068642;28;20325;-64
2023/01/20 13:07:04;;;;;;;;;;;2.30;99.90;;;;;;5063435;28;19917;-64
2023/01/20 13:09:37;;;;;;;;;;;2.30;99.90;;;;;;5066217;28;19912;-63
2023/01/20 13:12:17;;;;;;;;;;;2.30;99.90;;;;;;5065147;28;19916;-64
2023/01/20 13:14:53;;;;;;;;;;;2.20;99.90;;;;;;5062720;28;19916;-63
2023/01/20 13:17:29;;;;;;;;;;;2.30;99.90;;;;;;5063056;28;19920;-64
2023/01/20 13:19:56;;;;;;;;;;;2.20;99.90;;;;;;5070187;28;20397;-64
2023/01/20 13:22:22;;;;;;;;;;;2.30;99.90;;;;;;5070257;28;19920;-63
2023/01/20 13:24:49;;;;;;;;;;;2.20;99.90;;;;;;5069366;28;20397;-64
2023/01/20 13:27:20;;;;;;;;;;;2.10;99.90;;;;;;5069493;28;20378;-63
2023/01/20 13:29:56;;;;;;;;;;;2.00;99.90;;;;;;5071546;28;19943;-63
2023/01/20 13:32:29;;;;;;;;;;;2.10;99.90;;;;;;5071432;28;19917;-63
2023/01/20 13:34:55;;;;;;;;;;;2.00;99.90;;;;;;5066270;28;19919;-63
2023/01/20 13:37:23;;;;;;;;;;;2.10;99.90;;;;;;5070809;28;19912;-63
2023/01/20 13:39:49;;;;;;;;;;;2.00;99.90;;;;;;5071446;28;20385;-63
2023/01/20 13:42:27;;;;;;;;;;;2.10;99.90;;;;;;5071178;28;20375;-62
2023/01/20 13:45:11;;;;;;;;;;;2.10;99.90;;;;;;5071013;28;19927;-63
2023/01/20 13:47:46;;;;;;;;;;;2.00;99.90;;;;;;5072651;28;19966;-61
2023/01/20 13:50:22;;;;;;;;;;;2.10;99.90;;;;;;5067796;28;20275;-63
2023/01/20 13:52:51;;;;;;;;;;;2.00;99.90;;;;;;5071287;28;19912;-63
2023/01/20 13:55:29;;;;;;;;;;;2.10;99.90;;;;;;5072319;28;19924;-63
2023/01/20 13:57:54;;;;;;;;;;;2.10;99.90;;;;;;5068339;28;19920;-62
2023/01/20 14:00:20;;;;;;;;;;;2.20;99.90;;;;;;5065974;28;20361;-63
2023/01/20 14:02:46;;;;;;;;;;;2.20;99.90;;;;;;5068960;28;19913;-63
2023/01/20 14:05:18;;;;;;;;;;;2.10;99.90;;;;;;5064669;28;20019;-62
2023/01/20 14:07:44;;;;;;;;;;;2.10;99.90;;;;;;5066259;28;19924;-63
2023/01/20 14:10:10;;;;;;;;;;;2.20;99.90;;;;;;5072034;28;19912;-63
2023/01/20 14:12:40;;;;;;;;;;;2.20;99.90;;;;;;5069276;28;19921;-63
2023/01/20 14:15:05;;;;;;;;;;;2.10;99.90;;;;;;5068313;28;19913;-63
2023/01/20 14:17:31;;;;;;;;;;;2.00;99.90;;;;;;5068422;28;19974;-63
2023/01/20 14:19:56;;;;;;;;;;;2.00;99.90;;;;;;5067861;28;20007;-62
2023/01/20 14:22:26;;;;;;;;;;;2.00;99.90;;;;;;5066092;28;19936;-61
2023/01/20 14:24:56;;;;;;;;;;;2.00;99.90;;;;;;5070968;28;20366;-62
2023/01/20 14:27:34;;;;;;;;;;;2.00;99.90;;;;;;5070971;28;19916;-61
2023/01/20 14:30:18;;;;;;;;;;;2.00;99.90;;;;;;5071511;28;19963;-61
2023/01/20 14:32:44;;;;;;;;;;;2.00;99.90;;;;;;5071423;28;19919;-62
2023/01/20 14:35:19;;;;;;;;;;;2.10;99.90;;;;;;5071973;28;20000;-62
2023/01/20 14:37:47;;;;;;;;;;;2.00;99.90;;;;;;5071471;28;20409;-63
2023/01/20 14:40:13;;;;;;;;;;;2.00;99.90;;;;;;5067715;28;19938;-61
2023/01/20 14:42:39;;;;;;;;;;;1.90;99.90;;;;;;5071077;28;20390;-62
2023/01/20 14:45:16;;;;;;;;;;;1.90;99.90;;;;;;5068075;28;19908;-62